Time;durP1;ratioP1;P1;durP2;ratioP2;P2;SDS_P1;SDS_P2;PMS_P1;PMS_P2;Temp;Humidity;BMP_temperature;BMP_pressure;BME280_temperature;BME280_humidity;BME280_pressure;Samples;Min_cycle;Max_cycle;Signal;HPM_P1;HPM_P2
2021/04/09 00:00:50;;;;;;;12.60;7.80;;;;;;;3.18;60.07;100583.56;5074106;28;20016;-80
2021/04/09 00:03:15;;;;;;;17.40;8.57;;;;;;;3.19;60.05;100576.72;5075382;28;20029;-80
2021/04/09 00:05:41;;;;;;;16.23;8.70;;;;;;;3.11;60.28;100578.31;5075043;28;20083;-80
2021/04/09 00:08:06;;;;;;;15.25;7.90;;;;;;;3.10;60.49;100576.59;5075344;28;20035;-80
2021/04/09 00:10:32;;;;;;;13.27;8.32;;;;;;;3.14;60.38;100578.34;5090067;28;20028;-80
2021/04/09 00:12:57;;;;;;;14.98;8.20;;;;;;;3.15;60.42;100585.22;5090042;28;20033;-80
2021/04/09 00:15:23;;;;;;;16.83;8.60;;;;;;;3.23;59.78;100575.91;5073372;28;20131;-80
2021/04/09 00:17:48;;;;;;;13.75;8.07;;;;;;;3.24;59.56;100580.22;5074365;28;20029;-80
2021/04/09 00:20:20;;;;;;;12.93;7.47;;;;;;;3.23;59.97;100565.66;5078193;28;20044;-80
2021/04/09 00:22:45;;;;;;;16.75;8.68;;;;;;;3.23;60.16;100566.53;5094079;28;20020;-80
2021/04/09 00:25:12;;;;;;;14.48;8.27;;;;;;;3.28;59.41;100556.31;5077403;28;20484;-80
2021/04/09 00:27:37;;;;;;;13.38;8.20;;;;;;;3.32;59.60;100549.53;5078704;28;20080;-80
2021/04/09 00:30:05;;;;;;;23.33;9.25;;;;;;;3.29;59.61;100558.03;5093839;28;20052;-80
2021/04/09 00:32:30;;;;;;;19.17;7.63;;;;;;;3.29;59.91;100552.91;5093897;28;20498;-80
2021/04/09 00:34:55;;;;;;;15.70;8.40;;;;;;;3.23;60.62;100553.72;5093902;28;20020;-80
2021/04/09 00:37:20;;;;;;;13.85;7.93;;;;;;;3.25;60.40;100550.31;5078165;28;20024;-80
2021/04/09 00:39:46;;;;;;;17.40;8.35;;;;;;;3.25;60.43;100550.31;5078175;28;20123;-80
2021/04/09 00:42:18;;;;;;;16.52;9.13;;;;;;;3.31;60.21;100551.22;5078597;28;20028;-80
2021/04/09 00:44:44;;;;;;;16.27;8.65;;;;;;;3.27;59.96;100553.75;5076848;28;20024;-80
2021/04/09 00:47:10;;;;;;;13.93;7.10;;;;;;;3.18;60.50;100539.13;5098247;28;20388;-80
2021/04/09 00:49:35;;;;;;;16.90;8.77;;;;;;;3.18;60.22;100551.94;5095585;28;20032;-80
2021/04/09 00:52:00;;;;;;;14.07;8.32;;;;;;;3.15;61.31;100554.47;5079059;28;20399;-80
2021/04/09 00:54:26;;;;;;;15.90;8.60;;;;;;;3.09;61.18;100546.72;5080243;28;20032;-80
2021/04/09 00:56:51;;;;;;;17.52;8.90;;;;;;;3.07;61.44;100548.38;5095680;28;20067;-80
2021/04/09 00:59:16;;;;;;;15.05;8.50;;;;;;;3.00;61.03;100539.78;5078920;28;20027;-80
2021/04/09 01:01:41;;;;;;;15.15;7.60;;;;;;;3.04;61.01;100530.41;5080731;28;20056;-79
2021/04/09 01:04:07;;;;;;;18.90;9.55;;;;;;;2.99;61.63;100528.66;5094042;28;20108;-80
2021/04/09 01:06:32;;;;;;;17.67;8.45;;;;;;;3.02;61.18;100529.53;5094110;28;20020;-80
2021/04/09 01:08:57;;;;;;;16.02;8.50;;;;;;;2.98;61.56;100518.38;5096256;28;20028;-80
2021/04/09 01:11:23;;;;;;;13.68;8.25;;;;;;;2.97;60.93;100521.78;5096543;28;20610;-80
2021/04/09 01:13:48;;;;;;;15.45;9.10;;;;;;;2.93;61.53;100514.94;5080399;28;20024;-80
2021/04/09 01:16:25;;;;;;;16.63;9.13;;;;;;;2.92;61.59;100506.34;5092819;28;20029;-80
2021/04/09 01:18:59;;;;;;;18.55;8.60;;;;;;;2.88;61.83;100503.75;5093244;28;20020;-80
2021/04/09 01:21:54;;;;;;;16.65;9.15;;;;;;;2.88;61.30;100485.81;5077085;28;20028;-80
2021/04/09 01:24:42;;;;;;;17.23;8.68;;;;;;;2.84;61.59;100490.06;5076858;28;20043;-80
2021/04/09 01:27:50;;;;;;;15.20;8.60;;;;;;;2.77;61.94;100485.69;5075810;28;20027;-80
2021/04/09 01:30:32;;;;;;;17.58;8.57;;;;;;;2.75;61.74;100479.69;5075187;28;20024;-80
2021/04/09 01:32:58;;;;;;;18.73;8.38;;;;;;;2.68;62.12;100477.88;5091866;28;20020;-80
2021/04/09 01:35:25;;;;;;;17.13;8.80;;;;;;;2.63;62.51;100466.75;5092261;28;20126;-80
2021/04/09 01:37:58;;;;;;;19.40;8.30;;;;;;;2.63;62.12;100453.94;5091629;28;20020;-80
2021/04/09 01:40:29;;;;;;;19.13;8.13;;;;;;;2.66;61.42;100459.97;5091814;28;20016;-80
2021/04/09 01:42:59;;;;;;;15.98;8.05;;;;;;;2.75;61.28;100451.53;5092324;28;20032;-80
2021/04/09 01:45:26;;;;;;;15.05;7.57;;;;;;;2.67;62.16;100448.00;5076794;28;20059;-80
2021/04/09 01:47:52;;;;;;;19.92;8.80;;;;;;;2.68;61.61;100439.47;5074698;28;20028;-80
2021/04/09 01:50:18;;;;;;;17.70;8.45;;;;;;;2.75;60.79;100442.16;5076489;28;20025;-80
2021/04/09 01:52:46;;;;;;;13.70;7.88;;;;;;;2.74;61.57;100444.66;5076607;28;20027;-80
2021/04/09 01:55:13;;;;;;;14.70;7.75;;;;;;;2.73;61.65;100436.13;5091585;28;20021;-80
2021/04/09 01:57:41;;;;;;;13.55;8.35;;;;;;;2.70;61.76;100433.53;5091617;28;20028;-80
2021/04/09 02:00:12;;;;;;;15.52;8.55;;;;;;;2.70;61.99;100427.56;5091810;28;20031;-80
2021/04/09 02:02:38;;;;;;;13.80;8.30;;;;;;;2.72;62.11;100428.44;5076872;28;20024;-80
2021/04/09 02:05:04;;;;;;;16.35;7.85;;;;;;;2.73;61.52;100419.91;5091462;28;20028;-80
2021/04/09 02:07:31;;;;;;;14.25;7.63;;;;;;;2.74;61.84;100416.50;5091348;28;20575;-80
2021/04/09 02:09:59;;;;;;;15.25;7.45;;;;;;;2.79;61.68;100422.53;5074709;28;20434;-80
2021/04/09 02:12:25;;;;;;;16.05;7.80;;;;;;;2.81;61.34;100410.63;5074880;28;20025;-80
2021/04/09 02:14:56;;;;;;;16.58;9.23;;;;;;;2.75;62.04;100401.16;5075672;28;20028;-80
2021/04/09 02:17:21;;;;;;;15.40;8.35;;;;;;;2.69;62.79;100392.56;5074326;28;20075;-80
2021/04/09 02:19:47;;;;;;;15.82;8.20;;;;;;;2.73;62.29;100390.03;5075534;28;20025;-80
2021/04/09 02:22:13;;;;;;;12.60;7.55;;;;;;;2.73;62.57;100387.47;5091116;28;20032;-80
2021/04/09 02:24:38;;;;;;;13.80;7.95;;;;;;;2.75;62.02;100377.28;5075627;28;20387;-80
2021/04/09 02:27:05;;;;;;;16.77;8.02;;;;;;;2.79;62.14;100388.41;5075221;28;20024;-80
2021/04/09 02:29:32;;;;;;;15.20;8.70;;;;;;;2.82;61.57;100380.75;5075243;28;20021;-80
2021/04/09 02:31:57;;;;;;;15.55;8.40;;;;;;;2.76;62.12;100377.28;5075068;28;20024;-80
2021/04/09 02:34:22;;;;;;;13.25;7.15;;;;;;;2.75;61.63;100364.47;5075313;28;20079;-80
2021/04/09 02:36:48;;;;;;;13.30;7.43;;;;;;;2.78;61.82;100353.41;5073597;28;20063;-80
2021/04/09 02:39:18;;;;;;;16.02;7.80;;;;;;;2.69;62.65;100361.84;5075148;28;20024;-80
2021/04/09 02:41:48;;;;;;;21.92;8.02;;;;;;;2.70;62.26;100364.41;5074683;28;20064;-80
2021/04/09 02:44:15;;;;;;;17.10;8.45;;;;;;;2.64;63.01;100360.91;5075419;28;20114;-80
2021/04/09 02:46:52;;;;;;;16.70;8.18;;;;;;;2.68;62.21;100360.09;5090408;28;20030;-80
2021/04/09 02:49:38;;;;;;;15.27;7.85;;;;;;;2.68;62.52;100357.53;5074711;28;20104;-79
2021/04/09 02:52:05;;;;;;;17.30;8.07;;;;;;;2.71;62.01;100345.66;5074797;28;20029;-79
2021/04/09 02:54:32;;;;;;;14.65;8.65;;;;;;;2.70;62.00;100338.78;5074952;28;20059;-80
2021/04/09 02:56:59;;;;;;;17.27;8.45;;;;;;;2.79;61.54;100327.78;5074633;28;20024;-80
2021/04/09 02:59:27;;;;;;;18.17;8.18;;;;;;;2.82;61.74;100326.97;5090167;28;20115;-80
2021/04/09 03:01:52;;;;;;;17.67;7.70;;;;;;;2.67;62.25;100323.41;5074665;28;20028;-80
2021/04/09 03:04:19;;;;;;;13.90;6.88;;;;;;;2.68;62.04;100321.69;5090236;28;20023;-80
2021/04/09 03:06:46;;;;;;;19.02;7.13;;;;;;;2.79;61.23;100319.25;5090143;28;20377;-79
2021/04/09 03:09:11;;;;;;;17.88;8.57;;;;;;;2.67;62.25;100312.31;5090101;28;20047;-79
2021/04/09 03:11:37;;;;;;;13.57;8.07;;;;;;;2.60;62.60;100313.09;5072843;28;20071;-79
2021/04/09 03:14:03;;;;;;;19.02;7.82;;;;;;;2.69;61.66;100308.06;5074858;28;20036;-80
2021/04/09 03:16:36;;;;;;;18.45;7.50;;;;;;;2.61;62.54;100299.44;5089883;28;20032;-80
2021/04/09 03:19:01;;;;;;;16.40;7.50;;;;;;;2.62;62.34;100302.03;5089947;28;20035;-80
2021/04/09 03:21:27;;;;;;;15.07;7.97;;;;;;;2.66;61.83;100295.22;5074263;28;20020;-80
2021/04/09 03:23:52;;;;;;;15.25;8.13;;;;;;;2.72;61.46;100292.72;5074342;28;20461;-80
2021/04/09 03:26:17;;;;;;;15.20;7.97;;;;;;;2.58;62.24;100286.59;5089811;28;20028;-79
2021/04/09 03:28:42;;;;;;;15.65;7.72;;;;;;;2.46;62.81;100290.78;5089804;28;20036;-79
2021/04/09 03:31:08;;;;;;;16.38;7.63;;;;;;;2.45;63.09;100285.63;5089518;28;20028;-79
2021/04/09 03:33:33;;;;;;;15.90;7.90;;;;;;;2.53;62.30;100282.31;5089844;28;20024;-79
2021/04/09 03:35:58;;;;;;;16.23;8.38;;;;;;;2.57;62.19;100275.50;5072887;28;20552;-79
2021/04/09 03:38:24;;;;;;;15.60;7.85;;;;;;;2.57;62.76;100272.97;5074226;28;20020;-79
2021/04/09 03:40:49;;;;;;;14.98;7.50;;;;;;;2.54;62.52;100268.66;5074213;28;20082;-79
2021/04/09 03:43:15;;;;;;;17.33;8.43;;;;;;;2.64;61.94;100258.50;5090090;28;20032;-79
2021/04/09 03:45:40;;;;;;;14.77;7.65;;;;;;;2.55;62.39;100261.84;5090151;28;20025;-79
2021/04/09 03:48:07;;;;;;;18.77;8.10;;;;;;;2.43;63.09;100254.03;5073995;28;20472;-79
2021/04/09 03:50:32;;;;;;;17.75;7.57;;;;;;;2.45;62.90;100254.91;5074513;28;20112;-79
2021/04/09 03:52:57;;;;;;;15.10;7.63;;;;;;;2.45;63.28;100254.91;5075775;28;20117;-80
2021/04/09 03:55:23;;;;;;;15.48;7.20;;;;;;;2.34;63.47;100254.81;5077184;28;20102;-79
2021/04/09 03:57:48;;;;;;;18.33;8.18;;;;;;;2.61;62.21;100228.59;5093889;28;20029;-80
2021/04/09 04:00:14;;;;;;;17.65;7.68;;;;;;;2.57;62.91;100247.34;5077050;28;20032;-80
2021/04/09 04:02:39;;;;;;;14.23;7.75;;;;;;;2.49;62.92;100237.06;5076847;28;20024;-80
2021/04/09 04:05:05;;;;;;;14.95;8.23;;;;;;;2.49;63.11;100238.72;5093695;28;20553;-80
2021/04/09 04:07:31;;;;;;;16.42;7.65;;;;;;;2.51;62.84;100226.81;5078250;28;20024;-80
2021/04/09 04:09:56;;;;;;;16.13;7.88;;;;;;;2.51;63.27;100232.78;5093355;28;20090;-80
2021/04/09 04:12:21;;;;;;;18.23;7.70;;;;;;;2.50;62.95;100228.53;5093284;28;20056;-80
2021/04/09 04:14:46;;;;;;;17.05;7.82;;;;;;;2.48;63.17;100227.66;5076863;28;20098;-79
2021/04/09 04:17:12;;;;;;;16.83;8.25;;;;;;;2.53;63.32;100228.56;5093713;28;20495;-80
2021/04/09 04:19:37;;;;;;;14.85;7.85;;;;;;;2.67;62.73;100225.25;5077789;28;20070;-80
2021/04/09 04:22:02;;;;;;;19.67;8.45;;;;;;;2.66;63.36;100226.09;5093635;28;20044;-80
2021/04/09 04:24:27;;;;;;;12.68;7.55;;;;;;;2.71;62.43;100215.06;5076466;28;20389;-80
2021/04/09 04:26:53;;;;;;;13.45;7.32;;;;;;;2.68;62.82;100220.16;5078138;28;20111;-80
2021/04/09 04:29:18;;;;;;;16.92;8.20;;;;;;;2.70;62.89;100215.88;5077790;28;20028;-80
2021/04/09 04:31:43;;;;;;;17.15;7.82;;;;;;;2.66;63.22;100219.28;5093198;28;20063;-80
2021/04/09 04:34:09;;;;;;;18.33;8.07;;;;;;;2.69;62.96;100196.25;5077829;28;20016;-80
2021/04/09 04:36:34;;;;;;;15.63;8.00;;;;;;;2.81;62.61;100207.44;5092791;28;20035;-80
2021/04/09 04:38:59;;;;;;;19.58;7.75;;;;;;;2.75;63.10;100205.69;5077299;28;20028;-79
2021/04/09 04:41:25;;;;;;;20.80;8.45;;;;;;;2.77;62.65;100209.09;5093000;28;20518;-79
2021/04/09 04:43:50;;;;;;;15.57;7.45;;;;;;;2.81;63.13;100210.00;5077434;28;20024;-79
2021/04/09 04:46:15;;;;;;;18.35;7.90;;;;;;;2.78;63.39;100215.97;5093042;28;20498;-79
2021/04/09 04:48:41;;;;;;;17.88;8.27;;;;;;;2.79;63.25;100212.53;5077392;28;20030;-80
2021/04/09 04:51:06;;;;;;;17.30;7.63;;;;;;;2.81;62.98;100210.00;5076191;28;20029;-79
2021/04/09 04:53:31;;;;;;;17.23;7.43;;;;;;;2.85;63.05;100215.16;5076674;28;20432;-79
2021/04/09 04:55:57;;;;;;;13.93;7.80;;;;;;;2.81;63.23;100208.31;5092038;28;20041;-79
2021/04/09 04:58:22;;;;;;;14.82;8.18;;;;;;;2.82;63.65;100206.59;5092342;28;20413;-79
2021/04/09 05:00:47;;;;;;;14.43;6.00;;;;;;;2.89;62.83;100204.06;5091911;28;20021;-79
2021/04/09 05:03:13;;;;;;;14.93;7.43;;;;;;;2.85;63.72;100204.06;5075823;28;20020;-79
2021/04/09 05:05:38;;;;;;;14.68;7.35;;;;;;;2.91;63.11;100207.50;5091945;28;20024;-79
2021/04/09 05:08:04;;;;;;;16.55;8.15;;;;;;;2.92;63.33;100204.09;5092008;28;20031;-79
2021/04/09 05:10:29;;;;;;;13.00;7.18;;;;;;;2.92;63.42;100198.13;5091932;28;20538;-79
2021/04/09 05:12:54;;;;;;;13.80;7.30;;;;;;;2.97;63.31;100211.81;5076251;28;20033;-79
2021/04/09 05:15:19;;;;;;;17.20;7.97;;;;;;;3.04;63.18;100207.59;5091296;28;20020;-79
2021/04/09 05:17:45;;;;;;;17.50;7.55;;;;;;;2.99;63.90;100208.44;5074693;28;20024;-79
2021/04/09 05:20:10;;;;;;;13.90;7.25;;;;;;;3.04;63.12;100203.34;5091480;28;20028;-79
2021/04/09 05:22:36;;;;;;;17.30;7.05;;;;;;;3.03;63.61;100211.03;5076017;28;20024;-79
2021/04/09 05:25:01;;;;;;;14.43;7.72;;;;;;;3.04;63.80;100217.84;5076248;28;20373;-79
2021/04/09 05:27:26;;;;;;;14.13;7.30;;;;;;;3.07;63.41;100215.31;5075964;28;20024;-79
2021/04/09 05:29:52;;;;;;;20.02;8.10;;;;;;;3.09;64.00;100223.88;5091528;28;20028;-79
2021/04/09 05:32:17;;;;;;;18.40;8.27;;;;;;;3.07;64.36;100212.75;5091507;28;20031;-79
2021/04/09 05:34:42;;;;;;;14.30;7.72;;;;;;;3.13;63.97;100211.06;5075796;28;20017;-79
2021/04/09 05:37:08;;;;;;;18.83;8.10;;;;;;;3.19;63.77;100212.81;5074278;28;20536;-79
2021/04/09 05:39:35;;;;;;;17.02;7.82;;;;;;;3.19;64.05;100198.31;5075780;28;20020;-79
2021/04/09 05:42:01;;;;;;;15.35;7.28;;;;;;;3.20;63.88;100202.59;5074752;28;20384;-79
2021/04/09 05:44:27;;;;;;;16.08;8.02;;;;;;;3.23;63.98;100199.16;5075490;28;20020;-79
2021/04/09 05:46:53;;;;;;;19.25;8.15;;;;;;;3.21;64.18;100203.44;5074037;28;20024;-79
2021/04/09 05:49:18;;;;;;;14.38;7.97;;;;;;;3.21;64.97;100194.06;5090802;28;20016;-78
2021/04/09 05:51:43;;;;;;;16.63;7.38;;;;;;;3.28;63.92;100205.19;5091233;28;20032;-80
2021/04/09 05:54:09;;;;;;;15.43;7.82;;;;;;;3.30;64.48;100195.81;5076623;28;20024;-80
2021/04/09 05:56:34;;;;;;;17.10;8.02;;;;;;;3.28;64.48;100199.22;5076362;28;20028;-79
2021/04/09 05:58:59;;;;;;;17.70;7.97;;;;;;;3.31;64.06;100196.66;5075989;28;20025;-80
2021/04/09 06:01:24;;;;;;;15.30;7.53;;;;;;;3.31;64.11;100202.66;5075738;28;20024;-79
2021/04/09 06:03:50;;;;;;;14.68;7.60;;;;;;;3.28;64.89;100205.19;5091498;28;20058;-80
2021/04/09 06:06:16;;;;;;;16.27;7.43;;;;;;;3.26;64.88;100195.78;5076397;28;20025;-80
2021/04/09 06:08:42;;;;;;;17.70;7.32;;;;;;;3.27;64.70;100197.50;5075738;28;20024;-80
2021/04/09 06:11:08;;;;;;;15.52;7.80;;;;;;;3.30;64.77;100200.09;5091464;28;20066;-80
2021/04/09 06:13:34;;;;;;;13.70;7.82;;;;;;;3.28;65.05;100212.88;5074800;28;20472;-80
2021/04/09 06:15:59;;;;;;;17.38;8.15;;;;;;;3.27;65.58;100211.19;5075193;28;20024;-81
2021/04/09 06:18:24;;;;;;;22.05;7.63;;;;;;;3.26;65.21;100193.22;5091609;28;20102;-80
2021/04/09 06:20:50;;;;;;;17.27;8.43;;;;;;;3.31;65.47;100197.53;5091293;28;20016;-80
2021/04/09 06:23:15;;;;;;;16.63;6.75;;;;;;;3.28;65.27;100183.84;5075828;28;20040;-80
2021/04/09 06:25:41;;;;;;;13.75;6.68;;;;;;;3.35;65.01;100199.25;5075101;28;20111;-80
2021/04/09 06:28:06;;;;;;;13.95;7.57;;;;;;;3.36;65.78;100192.44;5075605;28;20540;-80
2021/04/09 06:30:31;;;;;;;14.30;7.57;;;;;;;3.34;65.88;100192.41;5091206;28;20388;-80
2021/04/09 06:32:57;;;;;;;14.02;7.47;;;;;;;3.35;66.09;100183.00;5075984;28;20020;-80
2021/04/09 06:35:22;;;;;;;15.52;7.55;;;;;;;3.45;65.49;100182.22;5091502;28;20020;-80
2021/04/09 06:37:47;;;;;;;20.60;8.23;;;;;;;3.57;65.65;100184.84;5075766;28;20040;-80
2021/04/09 06:40:14;;;;;;;15.60;8.02;;;;;;;3.68;64.94;100178.03;5091385;28;20021;-80
2021/04/09 06:42:41;;;;;;;15.90;7.75;;;;;;;3.75;65.09;100178.91;5091687;28;20017;-80
2021/04/09 06:45:07;;;;;;;19.98;9.10;;;;;;;3.95;64.52;100175.56;5092431;28;20027;-80
2021/04/09 06:47:33;;;;;;;15.55;6.90;;;;;;;3.93;64.02;100181.53;5074434;28;20021;-80
2021/04/09 06:49:58;;;;;;;16.48;7.40;;;;;;;4.09;64.06;100173.84;5075375;28;20077;-80
2021/04/09 06:52:26;;;;;;;13.98;7.53;;;;;;;4.13;63.82;100176.44;5075429;28;20031;-80
2021/04/09 06:54:52;;;;;;;16.75;7.30;;;;;;;4.06;64.47;100173.84;5091303;28;20409;-80
2021/04/09 06:57:17;;;;;;;16.27;7.97;;;;;;;4.15;64.16;100169.59;5091141;28;20020;-80
2021/04/09 06:59:44;;;;;;;18.48;7.65;;;;;;;4.26;63.77;100166.19;5075037;28;20027;-80
2021/04/09 07:02:18;;;;;;;19.23;8.23;;;;;;;4.43;63.67;100168.78;5091562;28;20071;-80
2021/04/09 07:04:44;;;;;;;15.23;8.30;;;;;;;4.49;63.48;100166.19;5091625;28;20036;-80
2021/04/09 07:07:11;;;;;;;16.20;6.07;;;;;;;4.35;63.62;100171.34;5074633;28;20390;-80
2021/04/09 07:09:37;;;;;;;19.27;8.25;;;;;;;4.39;63.88;100161.06;5091019;28;20057;-80
2021/04/09 07:12:04;;;;;;;19.05;8.63;;;;;;;4.56;63.50;100167.94;5075497;28;20496;-80
2021/04/09 07:14:56;;;;;;;13.63;8.05;;;;;;;4.68;63.42;100165.38;5075483;28;20021;-80
2021/04/09 07:17:33;;;;;;;16.92;7.28;;;;;;;4.72;63.25;100158.50;5073020;28;20497;-80
2021/04/09 07:20:18;;;;;;;13.55;7.53;;;;;;;4.69;63.27;100161.06;5075232;28;20035;-80
2021/04/09 07:22:54;;;;;;;17.55;8.68;;;;;;;4.88;63.41;100157.63;5075021;28;20028;-80
2021/04/09 07:25:24;;;;;;;16.02;7.32;;;;;;;4.75;62.92;100156.78;5075265;28;20024;-80
2021/04/09 07:28:08;;;;;;;12.55;6.88;;;;;;;4.83;62.97;100149.94;5073567;28;20024;-80
2021/04/09 07:30:34;;;;;;;13.38;7.10;;;;;;;4.92;62.86;100148.19;5090690;28;20021;-80
2021/04/09 07:33:07;;;;;;;17.45;8.63;;;;;;;5.20;62.44;100146.41;5073637;28;20021;-80
2021/04/09 07:35:52;;;;;;;15.80;7.57;;;;;;;4.95;62.86;100138.75;5075030;28;20111;-80
2021/04/09 07:38:24;;;;;;;14.00;7.88;;;;;;;5.14;63.43;100143.84;5073915;28;20016;-80
2021/04/09 07:40:52;;;;;;;14.30;7.80;;;;;;;5.20;63.13;100144.72;5090440;28;20024;-80
2021/04/09 07:43:17;;;;;;;17.70;7.85;;;;;;;5.37;63.07;100147.22;5075480;28;20056;-80
2021/04/09 07:45:43;;;;;;;13.50;7.88;;;;;;;5.25;63.27;100149.81;5076575;28;20028;-80
2021/04/09 07:48:08;;;;;;;15.77;7.70;;;;;;;5.45;62.82;100145.47;5074303;28;20025;-82
2021/04/09 07:50:41;;;;;;;13.77;7.68;;;;;;;5.51;62.55;100137.75;5092074;28;20109;-81
2021/04/09 07:53:14;;;;;;;13.70;7.57;;;;;;;5.83;61.79;100136.72;5075559;28;20029;-81
2021/04/09 07:55:39;;;;;;;19.85;8.63;;;;;;;5.89;61.64;100136.66;5075243;28;20020;-80
2021/04/09 07:58:19;;;;;;;22.58;8.50;;;;;;;5.97;61.94;100154.66;5090129;28;20338;-80
2021/04/09 08:00:46;;;;;;;17.80;7.97;;;;;;;6.21;61.11;100158.81;5090222;28;20038;-80
2021/04/09 08:03:29;;;;;;;17.50;7.32;;;;;;;6.37;60.34;100151.81;5073175;28;20020;-80
2021/04/09 08:06:14;;;;;;;15.98;7.40;;;;;;;5.92;61.33;100149.53;5074217;28;20035;-80
2021/04/09 08:09:00;;;;;;;15.23;8.88;;;;;;;5.99;62.19;100158.09;5073239;28;20035;-80
2021/04/09 08:11:29;;;;;;;18.02;7.40;;;;;;;6.47;61.23;100163.78;5074164;28;20133;-80
2021/04/09 08:14:02;;;;;;;13.57;7.97;;;;;;;6.85;61.37;100175.47;5090049;28;20020;-80
2021/04/09 08:16:45;;;;;;;14.93;9.37;;;;;;;6.72;60.33;100171.31;5073448;28;20024;-80
2021/04/09 08:19:12;;;;;;;14.75;7.63;;;;;;;6.74;59.90;100165.25;5074493;28;20024;-81
2021/04/09 08:21:41;;;;;;;19.85;9.15;;;;;;;7.48;57.25;100172.22;5074602;28;20020;-81
2021/04/09 08:24:09;;;;;;;18.02;8.15;;;;;;;7.99;57.47;100162.97;5089658;28;20032;-81
2021/04/09 08:26:36;;;;;;;18.50;8.85;;;;;;;7.53;57.57;100168.72;5073123;28;20028;-81
2021/04/09 08:29:04;;;;;;;17.23;8.13;;;;;;;7.21;58.84;100161.38;5090339;28;20024;-81
2021/04/09 08:31:29;;;;;;;15.70;8.15;;;;;;;7.43;58.25;100159.41;5074412;28;20016;-81
2021/04/09 08:33:55;;;;;;;15.75;7.47;;;;;;;7.22;58.77;100163.06;5074880;28;20024;-81
2021/04/09 08:36:21;;;;;;;14.70;8.30;;;;;;;7.05;59.02;100160.69;5073140;28;20020;-81
2021/04/09 08:38:47;;;;;;;17.70;8.27;;;;;;;7.91;56.94;100159.63;5075363;28;20476;-81
2021/04/09 08:41:14;;;;;;;15.18;8.07;;;;;;;7.89;57.23;100163.13;5076307;28;20137;-81
2021/04/09 08:43:40;;;;;;;14.70;8.05;;;;;;;7.35;58.30;100158.63;5093265;28;20021;-81
2021/04/09 08:46:06;;;;;;;16.33;7.85;;;;;;;7.64;58.98;100160.00;5077606;28;20047;-81
2021/04/09 08:48:33;;;;;;;14.50;7.93;;;;;;;7.75;58.91;100158.13;5076261;28;20498;-81
2021/04/09 08:50:59;;;;;;;17.20;8.95;;;;;;;7.33;59.83;100161.22;5077567;28;20548;-81
2021/04/09 08:53:29;;;;;;;16.52;8.00;;;;;;;7.57;59.22;100162.66;5077945;28;20028;-81
2021/04/09 08:55:54;;;;;;;15.38;8.45;;;;;;;7.78;59.05;100161.53;5077322;28;20039;-80
2021/04/09 08:58:20;;;;;;;15.90;8.20;;;;;;;7.79;59.18;100160.66;5077711;28;20028;-81
2021/04/09 09:00:47;;;;;;;17.88;8.00;;;;;;;7.59;59.08;100166.06;5093543;28;20063;-81
2021/04/09 09:03:27;;;;;;;16.75;8.32;;;;;;;8.13;58.28;100177.41;5093357;28;20016;-81
2021/04/09 09:06:12;;;;;;;15.32;8.77;;;;;;;8.42;57.72;100171.84;5076712;28;20028;-82
2021/04/09 09:08:40;;;;;;;19.88;8.80;;;;;;;8.88;56.87;100176.25;5078019;28;20097;-82
2021/04/09 09:11:06;;;;;;;14.45;7.78;;;;;;;8.56;57.12;100162.16;5093515;28;20411;-82
2021/04/09 09:13:39;;;;;;;18.73;8.23;;;;;;;8.46;57.49;100164.00;5077215;28;20103;-82
2021/04/09 09:16:13;;;;;;;18.30;7.97;;;;;;;8.75;56.83;100163.53;5078185;28;20560;-82
2021/04/09 09:18:38;;;;;;;15.63;8.02;;;;;;;9.18;57.03;100155.00;5080386;28;20029;-82
2021/04/09 09:21:16;;;;;;;13.43;7.63;;;;;;;8.71;56.26;100148.09;5096332;28;20118;-82
2021/04/09 09:23:49;;;;;;;13.40;7.45;;;;;;;7.98;58.87;100148.34;5080408;28;20267;-82
2021/04/09 09:26:34;;;;;;;12.52;7.78;;;;;;;8.30;58.50;100142.69;5094916;28;20017;-81
2021/04/09 09:29:09;;;;;;;14.80;8.05;;;;;;;9.19;56.46;100137.75;5078786;28;20027;-81
2021/04/09 09:31:35;;;;;;;;;;;;;;;9.91;54.63;100146.59;5095224;28;20389;-82
2021/04/09 09:34:26;;;;;;;13.52;7.20;;;;;;;10.25;53.62;100140.63;5094900;28;19914;-82
2021/04/09 09:37:27;;;;;;;15.35;7.60;;;;;;;10.30;53.74;100137.09;5096572;28;20073;-82
2021/04/09 09:40:03;;;;;;;16.75;8.10;;;;;;;10.73;52.09;100140.38;5049497;28;20036;-82
2021/04/09 09:42:28;;;;;;;12.05;7.82;;;;;;;10.41;51.64;100131.66;5080642;28;20503;-83
2021/04/09 09:44:57;;;;;;;17.45;8.07;;;;;;;10.79;51.93;100135.03;5082225;28;20020;-83
2021/04/09 09:47:25;;;;;;;16.27;8.00;;;;;;;11.39;50.49;100136.88;5080274;28;20029;-83
2021/04/09 09:50:03;;;;;;;12.55;7.80;;;;;;;11.95;49.46;100138.72;5096348;28;20468;-83
2021/04/09 09:52:56;;;;;;;14.93;7.57;;;;;;;10.98;50.99;100137.97;5096234;28;20052;-83
2021/04/09 09:55:38;;;;;;;12.65;7.15;;;;;;;10.71;51.71;100140.41;5080795;28;20076;-82
2021/04/09 09:58:09;;;;;;;15.55;7.13;;;;;;;11.11;50.81;100139.34;5097377;28;20024;-83
2021/04/09 10:00:50;;;;;;;13.60;6.65;;;;;;;12.09;48.63;100148.66;5081803;28;20024;-83
2021/04/09 10:03:22;;;;;;;14.43;6.47;;;;;;;11.35;51.04;100147.38;5081509;28;20028;-83
2021/04/09 10:05:52;;;;;;;11.75;6.63;;;;;;;11.99;48.77;100142.91;5096880;28;20031;-83
2021/04/09 10:08:18;;;;;;;13.68;6.72;;;;;;;11.58;48.89;100157.13;5080489;28;20028;-83
2021/04/09 10:10:59;;;;;;;12.52;5.78;;;;;;;11.43;50.77;100150.59;5081543;28;20024;-83
2021/04/09 10:13:24;;;;;;;13.15;6.18;;;;;;;11.78;50.96;100146.97;5081216;28;20035;-83
2021/04/09 10:15:52;;;;;;;12.95;6.47;;;;;;;10.75;51.46;100136.84;5097197;28;20103;-83
2021/04/09 10:18:18;;;;;;;14.85;6.03;;;;;;;11.14;51.73;100156.59;5081696;28;20392;-83
2021/04/09 10:20:46;;;;;;;12.75;5.13;;;;;;;11.00;50.84;100156.97;5081420;28;20012;-83
2021/04/09 10:23:11;;;;;;;12.57;5.38;;;;;;;10.58;51.57;100144.19;5082169;28;20024;-83
2021/04/09 10:25:36;;;;;;;16.05;5.50;;;;;;;11.48;49.27;100151.31;5097325;28;20078;-83
2021/04/09 10:28:12;;;;;;;13.27;7.07;;;;;;;12.19;48.30;100137.94;5081422;28;20034;-83
2021/04/09 10:30:37;;;;;;;10.13;5.63;;;;;;;13.28;49.36;100144.69;5096510;28;20494;-84
2021/04/09 10:33:03;;;;;;;14.55;6.00;;;;;;;12.69;46.94;100141.56;5080912;28;20036;-83
2021/04/09 10:35:29;;;;;;;13.40;6.10;;;;;;;12.27;48.35;100139.44;5080698;28;20024;-84
2021/04/09 10:38:09;;;;;;;9.57;5.63;;;;;;;12.50;48.70;100128.28;5095620;28;20021;-83
2021/04/09 10:40:47;;;;;;;12.55;6.82;;;;;;;12.82;48.05;100138.47;5094659;28;20024;-83
2021/04/09 10:43:25;;;;;;;10.95;6.20;;;;;;;12.18;47.63;100136.22;5095105;28;20489;-85
2021/04/09 10:46:06;;;;;;;10.38;5.78;;;;;;;12.51;48.04;100143.84;5098204;22;20049;-77
2021/04/09 10:48:33;;;;;;;11.23;6.05;;;;;;;11.51;50.48;100143.44;5073897;28;20103;-78
2021/04/09 10:50:58;;;;;;;8.77;5.43;;;;;;;11.95;49.33;100142.16;5089368;28;20161;-78
2021/04/09 10:53:23;;;;;;;13.00;6.57;;;;;;;12.50;47.28;100149.97;5073697;28;20048;-78
2021/04/09 10:55:49;;;;;;;11.77;5.82;;;;;;;11.81;48.48;100140.84;5089612;28;20058;-78
2021/04/09 10:58:16;;;;;;;13.93;6.15;;;;;;;11.64;50.25;100150.00;5089739;28;20120;-78
2021/04/09 11:00:42;;;;;;;9.20;4.70;;;;;;;10.73;50.35;100146.41;5089343;28;20020;-78
2021/04/09 11:03:08;;;;;;;11.05;5.85;;;;;;;10.51;53.31;100153.03;5072327;28;20194;-78
2021/04/09 11:05:33;;;;;;;11.73;5.60;;;;;;;11.02;51.10;100145.66;5074281;28;20047;-79
2021/04/09 11:07:58;;;;;;;60.58;30.40;;;;;;;10.92;50.73;100148.53;5090333;28;20439;-79
2021/04/09 11:10:33;;;;;;;11.07;5.53;;;;;;;11.02;50.84;100155.16;5072853;28;20028;-79
2021/04/09 11:12:58;;;;;;;14.85;11.43;;;;;;;10.87;51.59;100143.47;5072981;28;20550;-79
2021/04/09 11:15:24;;;;;;;9.10;4.82;;;;;;;10.61;51.67;100138.94;5074521;28;20024;-79
2021/04/09 11:17:58;;;;;;;10.82;5.03;;;;;;;10.39;52.12;100136.03;5090272;28;20024;-79
2021/04/09 11:20:25;;;;;;;10.82;5.43;;;;;;;10.67;51.75;100138.78;5074027;28;20392;-79
2021/04/09 11:23:00;;;;;;;11.45;5.25;;;;;;;10.59;51.95;100132.91;5074771;28;20028;-79
2021/04/09 11:25:33;;;;;;;9.82;5.38;;;;;;;10.15;54.16;100137.41;5074385;28;20033;-79
2021/04/09 11:27:59;;;;;;;11.85;5.95;;;;;;;10.04;53.07;100140.28;5073990;28;20023;-79
2021/04/09 11:30:29;;;;;;;14.27;6.03;;;;;;;10.58;53.35;100145.03;5089465;28;20063;-79